sensor_id;sensor_type;location;lat;lon;timestamp;temperature;humidity
14473;DHT22;7322;50.872;4.386;2024-01-07T00:01:16;17.00;99.90
14473;DHT22;7322;50.872;4.386;2024-01-07T00:03:51;17.00;99.90
14473;DHT22;7322;50.872;4.386;2024-01-07T00:06:38;16.90;99.90
14473;DHT22;7322;50.872;4.386;2024-01-07T00:09:20;16.90;99.90
14473;DHT22;7322;50.872;4.386;2024-01-07T00:11:49;16.90;99.90
14473;DHT22;7322;50.872;4.386;2024-01-07T00:14:24;16.90;99.90
14473;DHT22;7322;50.872;4.386;2024-01-07T00:16:58;16.90;99.90
14473;DHT22;7322;50.872;4.386;2024-01-07T00:19:25;16.80;99.90
14473;DHT22;7322;50.872;4.386;2024-01-07T00:21:57;16.80;99.90
14473;DHT22;7322;50.872;4.386;2024-01-07T00:24:26;16.80;99.90
14473;DHT22;7322;50.872;4.386;2024-01-07T00:27:27;16.80;99.90
14473;DHT22;7322;50.872;4.386;2024-01-07T00:33:41;16.80;99.90
14473;DHT22;7322;50.872;4.386;2024-01-07T00:36:36;16.70;99.90
14473;DHT22;7322;50.872;4.386;2024-01-07T00:39:34;16.70;99.90
14473;DHT22;7322;50.872;4.386;2024-01-07T00:42:33;16.70;99.90
14473;DHT22;7322;50.872;4.386;2024-01-07T00:45:10;16.70;99.90
14473;DHT22;7322;50.872;4.386;2024-01-07T00:47:38;16.70;99.90
14473;DHT22;7322;50.872;4.386;2024-01-07T00:50:15;16.60;99.90
14473;DHT22;7322;50.872;4.386;2024-01-07T00:52:49;16.60;99.90
14473;DHT22;7322;50.872;4.386;2024-01-07T00:55:37;16.60;99.90
14473;DHT22;7322;50.872;4.386;2024-01-07T00:58:39;16.60;99.90
14473;DHT22;7322;50.872;4.386;2024-01-07T01:01:13;16.60;99.90
14473;DHT22;7322;50.872;4.386;2024-01-07T01:04:11;16.60;99.90
14473;DHT22;7322;50.872;4.386;2024-01-07T01:16:56;16.60;99.90
14473;DHT22;7322;50.872;4.386;2024-01-07T01:19:48;16.50;99.90
14473;DHT22;7322;50.872;4.386;2024-01-07T01:22:15;16.50;99.90
14473;DHT22;7322;50.872;4.386;2024-01-07T01:24:42;16.50;99.90
14473;DHT22;7322;50.872;4.386;2024-01-07T01:27:24;16.50;99.90
14473;DHT22;7322;50.872;4.386;2024-01-07T01:29:52;16.50;99.90
14473;DHT22;7322;50.872;4.386;2024-01-07T01:32:27;16.40;99.90
14473;DHT22;7322;50.872;4.386;2024-01-07T01:34:56;16.40;99.90
14473;DHT22;7322;50.872;4.386;2024-01-07T01:37:45;16.50;99.90
14473;DHT22;7322;50.872;4.386;2024-01-07T01:40:23;16.50;99.90
14473;DHT22;7322;50.872;4.386;2024-01-07T01:43:21;16.50;99.90
14473;DHT22;7322;50.872;4.386;2024-01-07T01:49:22;16.40;99.90
14473;DHT22;7322;50.872;4.386;2024-01-07T01:58:33;16.40;99.90
14473;DHT22;7322;50.872;4.386;2024-01-07T02:01:11;16.40;99.90
14473;DHT22;7322;50.872;4.386;2024-01-07T02:03:47;16.30;99.90
14473;DHT22;7322;50.872;4.386;2024-01-07T02:09:17;16.30;99.90
14473;DHT22;7322;50.872;4.386;2024-01-07T02:12:03;16.40;99.90
14473;DHT22;7322;50.872;4.386;2024-01-07T02:18:06;16.30;99.90
14473;DHT22;7322;50.872;4.386;2024-01-07T02:20:53;16.30;99.90
14473;DHT22;7322;50.872;4.386;2024-01-07T02:26:56;16.30;99.90
14473;DHT22;7322;50.872;4.386;2024-01-07T02:29:27;16.40;99.90
14473;DHT22;7322;50.872;4.386;2024-01-07T02:31:54;16.40;99.90
14473;DHT22;7322;50.872;4.386;2024-01-07T02:34:23;16.30;99.90
14473;DHT22;7322;50.872;4.386;2024-01-07T02:43:07;16.30;99.90
14473;DHT22;7322;50.872;4.386;2024-01-07T02:45:41;16.30;99.90
14473;DHT22;7322;50.872;4.386;2024-01-07T02:51:28;16.30;99.90
14473;DHT22;7322;50.872;4.386;2024-01-07T02:54:00;16.30;99.90
14473;DHT22;7322;50.872;4.386;2024-01-07T02:56:34;16.30;99.90
14473;DHT22;7322;50.872;4.386;2024-01-07T02:59:13;16.20;99.90
14473;DHT22;7322;50.872;4.386;2024-01-07T03:02:10;16.30;99.90
14473;DHT22;7322;50.872;4.386;2024-01-07T03:04:51;16.30;99.90
14473;DHT22;7322;50.872;4.386;2024-01-07T03:07:37;16.20;99.90
14473;DHT22;7322;50.872;4.386;2024-01-07T03:10:10;16.20;99.90
14473;DHT22;7322;50.872;4.386;2024-01-07T03:12:53;16.20;99.90
14473;DHT22;7322;50.872;4.386;2024-01-07T03:15:22;16.20;99.90
14473;DHT22;7322;50.872;4.386;2024-01-07T03:18:09;16.20;99.90
14473;DHT22;7322;50.872;4.386;2024-01-07T03:21:04;16.10;99.90
14473;DHT22;7322;50.872;4.386;2024-01-07T03:23:44;16.10;99.90
14473;DHT22;7322;50.872;4.386;2024-01-07T03:26:39;16.10;99.90
14473;DHT22;7322;50.872;4.386;2024-01-07T03:32:29;16.10;99.90
14473;DHT22;7322;50.872;4.386;2024-01-07T03:34:57;16.10;99.90
14473;DHT22;7322;50.872;4.386;2024-01-07T03:37:25;16.10;99.90
14473;DHT22;7322;50.872;4.386;2024-01-07T03:39:53;16.10;99.90
14473;DHT22;7322;50.872;4.386;2024-01-07T03:42:21;16.10;99.90
14473;DHT22;7322;50.872;4.386;2024-01-07T03:44:49;16.10;99.90
14473;DHT22;7322;50.872;4.386;2024-01-07T03:47:17;16.10;99.90
14473;DHT22;7322;50.872;4.386;2024-01-07T03:49:55;16.10;99.90
14473;DHT22;7322;50.872;4.386;2024-01-07T03:52:38;16.10;99.90
14473;DHT22;7322;50.872;4.386;2024-01-07T03:55:17;16.10;99.90
14473;DHT22;7322;50.872;4.386;2024-01-07T03:57:44;16.10;99.90
14473;DHT22;7322;50.872;4.386;2024-01-07T04:00:44;16.10;99.90
14473;DHT22;7322;50.872;4.386;2024-01-07T04:03:38;16.10;99.90
14473;DHT22;7322;50.872;4.386;2024-01-07T04:06:23;16.10;99.90
14473;DHT22;7322;50.872;4.386;2024-01-07T04:09:25;16.10;99.90
14473;DHT22;7322;50.872;4.386;2024-01-07T04:11:54;16.00;99.90
14473;DHT22;7322;50.872;4.386;2024-01-07T04:14:21;16.00;99.90
14473;DHT22;7322;50.872;4.386;2024-01-07T04:16:50;16.00;99.90
14473;DHT22;7322;50.872;4.386;2024-01-07T04:19:21;16.10;99.90
14473;DHT22;7322;50.872;4.386;2024-01-07T04:21:50;16.00;99.90
14473;DHT22;7322;50.872;4.386;2024-01-07T04:24:34;16.00;99.90
14473;DHT22;7322;50.872;4.386;2024-01-07T04:27:07;16.00;99.90
14473;DHT22;7322;50.872;4.386;2024-01-07T04:33:11;16.00;99.90
14473;DHT22;7322;50.872;4.386;2024-01-07T04:35:41;16.00;99.90
14473;DHT22;7322;50.872;4.386;2024-01-07T04:38:12;16.00;99.90
14473;DHT22;7322;50.872;4.386;2024-01-07T04:41:02;16.00;99.90
14473;DHT22;7322;50.872;4.386;2024-01-07T04:43:43;16.00;99.90
14473;DHT22;7322;50.872;4.386;2024-01-07T04:49:24;16.00;99.90
14473;DHT22;7322;50.872;4.386;2024-01-07T04:52:05;16.00;99.90
14473;DHT22;7322;50.872;4.386;2024-01-07T05:01:07;16.00;99.90
14473;DHT22;7322;50.872;4.386;2024-01-07T05:03:48;15.90;99.90
14473;DHT22;7322;50.872;4.386;2024-01-07T05:06:17;16.00;99.90
14473;DHT22;7322;50.872;4.386;2024-01-07T05:16:20;16.00;99.90
14473;DHT22;7322;50.872;4.386;2024-01-07T05:18:49;15.90;99.90
14473;DHT22;7322;50.872;4.386;2024-01-07T05:21:41;16.00;99.90
14473;DHT22;7322;50.872;4.386;2024-01-07T05:24:08;15.90;99.90
14473;DHT22;7322;50.872;4.386;2024-01-07T05:30:06;15.90;99.90
14473;DHT22;7322;50.872;4.386;2024-01-07T05:32:38;15.90;99.90
14473;DHT22;7322;50.872;4.386;2024-01-07T05:35:22;15.80;99.90
14473;DHT22;7322;50.872;4.386;2024-01-07T05:38:03;15.90;99.90
14473;DHT22;7322;50.872;4.386;2024-01-07T05:40:48;15.90;99.90
14473;DHT22;7322;50.872;4.386;2024-01-07T05:46:40;15.90;99.90
14473;DHT22;7322;50.872;4.386;2024-01-07T05:52:47;15.90;99.90
14473;DHT22;7322;50.872;4.386;2024-01-07T05:55:24;15.90;99.90
14473;DHT22;7322;50.872;4.386;2024-01-07T05:57:51;15.90;99.90
14473;DHT22;7322;50.872;4.386;2024-01-07T06:00:26;15.90;99.90
14473;DHT22;7322;50.872;4.386;2024-01-07T06:02:53;15.90;99.90
14473;DHT22;7322;50.872;4.386;2024-01-07T06:05:24;15.90;99.90
14473;DHT22;7322;50.872;4.386;2024-01-07T06:07:53;15.90;99.90
14473;DHT22;7322;50.872;4.386;2024-01-07T06:10:21;15.90;99.90
14473;DHT22;7322;50.872;4.386;2024-01-07T06:13:03;15.90;99.90
14473;DHT22;7322;50.872;4.386;2024-01-07T06:15:31;15.90;99.90
14473;DHT22;7322;50.872;4.386;2024-01-07T06:18:12;15.90;99.90
14473;DHT22;7322;50.872;4.386;2024-01-07T06:21:00;15.90;99.90
14473;DHT22;7322;50.872;4.386;2024-01-07T06:23:47;15.90;99.90
14473;DHT22;7322;50.872;4.386;2024-01-07T06:26:18;15.90;99.90
14473;DHT22;7322;50.872;4.386;2024-01-07T06:28:55;15.90;99.90
14473;DHT22;7322;50.872;4.386;2024-01-07T06:34:33;15.90;99.90
14473;DHT22;7322;50.872;4.386;2024-01-07T06:37:13;15.90;99.90
14473;DHT22;7322;50.872;4.386;2024-01-07T06:43:11;16.60;99.90
14473;DHT22;7322;50.872;4.386;2024-01-07T06:45:57;17.00;99.90
14473;DHT22;7322;50.872;4.386;2024-01-07T06:48:24;17.10;99.90
14473;DHT22;7322;50.872;4.386;2024-01-07T06:51:02;17.20;99.90
14473;DHT22;7322;50.872;4.386;2024-01-07T06:53:52;17.40;99.90
14473;DHT22;7322;50.872;4.386;2024-01-07T06:56:34;17.50;99.90
14473;DHT22;7322;50.872;4.386;2024-01-07T06:59:24;17.60;99.90
14473;DHT22;7322;50.872;4.386;2024-01-07T07:01:56;17.70;99.90
14473;DHT22;7322;50.872;4.386;2024-01-07T07:04:43;17.70;99.90
14473;DHT22;7322;50.872;4.386;2024-01-07T07:07:18;17.80;99.90
14473;DHT22;7322;50.872;4.386;2024-01-07T07:09:47;17.80;99.90
14473;DHT22;7322;50.872;4.386;2024-01-07T07:12:25;17.90;99.90
14473;DHT22;7322;50.872;4.386;2024-01-07T07:14:58;18.00;99.90
14473;DHT22;7322;50.872;4.386;2024-01-07T07:17:44;18.00;99.90
14473;DHT22;7322;50.872;4.386;2024-01-07T07:20:11;18.10;99.90
14473;DHT22;7322;50.872;4.386;2024-01-07T07:22:47;18.10;99.90
14473;DHT22;7322;50.872;4.386;2024-01-07T07:25:30;18.20;99.90
14473;DHT22;7322;50.872;4.386;2024-01-07T07:27:57;18.20;99.90
14473;DHT22;7322;50.872;4.386;2024-01-07T07:30:27;18.30;99.90
14473;DHT22;7322;50.872;4.386;2024-01-07T07:33:15;18.30;99.90
14473;DHT22;7322;50.872;4.386;2024-01-07T07:35:42;18.30;99.90
14473;DHT22;7322;50.872;4.386;2024-01-07T07:38:11;18.30;99.90
14473;DHT22;7322;50.872;4.386;2024-01-07T07:44:06;18.30;99.90
14473;DHT22;7322;50.872;4.386;2024-01-07T07:46:56;18.20;99.90
14473;DHT22;7322;50.872;4.386;2024-01-07T07:49:41;18.20;99.90
14473;DHT22;7322;50.872;4.386;2024-01-07T07:52:08;18.20;99.90
14473;DHT22;7322;50.872;4.386;2024-01-07T07:54:50;18.20;99.90
14473;DHT22;7322;50.872;4.386;2024-01-07T07:57:31;18.10;99.90
14473;DHT22;7322;50.872;4.386;2024-01-07T08:00:08;18.20;99.90
14473;DHT22;7322;50.872;4.386;2024-01-07T08:06:04;18.10;99.90
14473;DHT22;7322;50.872;4.386;2024-01-07T08:09:02;18.00;99.90
14473;DHT22;7322;50.872;4.386;2024-01-07T08:11:42;18.00;99.90
14473;DHT22;7322;50.872;4.386;2024-01-07T08:14:28;18.00;99.90
14473;DHT22;7322;50.872;4.386;2024-01-07T08:17:02;18.00;99.90
14473;DHT22;7322;50.872;4.386;2024-01-07T08:23:05;17.90;99.90
14473;DHT22;7322;50.872;4.386;2024-01-07T08:25:34;17.90;99.90
14473;DHT22;7322;50.872;4.386;2024-01-07T08:28:17;17.90;99.90
14473;DHT22;7322;50.872;4.386;2024-01-07T08:30:53;17.90;99.90
14473;DHT22;7322;50.872;4.386;2024-01-07T08:36:43;17.80;99.90
14473;DHT22;7322;50.872;4.386;2024-01-07T08:46:10;17.80;99.90
14473;DHT22;7322;50.872;4.386;2024-01-07T08:48:57;17.80;99.90
14473;DHT22;7322;50.872;4.386;2024-01-07T09:00:49;18.50;99.90
14473;DHT22;7322;50.872;4.386;2024-01-07T09:06:48;18.60;99.90
14473;DHT22;7322;50.872;4.386;2024-01-07T09:09:37;18.60;99.90
14473;DHT22;7322;50.872;4.386;2024-01-07T09:12:35;18.60;99.90
14473;DHT22;7322;50.872;4.386;2024-01-07T09:15:08;18.50;99.90
14473;DHT22;7322;50.872;4.386;2024-01-07T09:17:48;18.50;99.90
14473;DHT22;7322;50.872;4.386;2024-01-07T09:23:46;18.50;99.90
14473;DHT22;7322;50.872;4.386;2024-01-07T09:32:07;18.40;99.90
14473;DHT22;7322;50.872;4.386;2024-01-07T09:34:24;18.40;99.90
14473;DHT22;7322;50.872;4.386;2024-01-07T09:36:52;18.40;99.90
14473;DHT22;7322;50.872;4.386;2024-01-07T09:39:51;18.30;99.90
14473;DHT22;7322;50.872;4.386;2024-01-07T09:46:11;18.20;99.90
14473;DHT22;7322;50.872;4.386;2024-01-07T09:48:47;18.20;99.90
14473;DHT22;7322;50.872;4.386;2024-01-07T09:51:29;18.20;99.90
14473;DHT22;7322;50.872;4.386;2024-01-07T09:54:30;18.20;99.90
14473;DHT22;7322;50.872;4.386;2024-01-07T09:57:01;18.20;99.90
14473;DHT22;7322;50.872;4.386;2024-01-07T09:59:31;18.10;99.90
14473;DHT22;7322;50.872;4.386;2024-01-07T10:02:02;18.10;99.90
14473;DHT22;7322;50.872;4.386;2024-01-07T10:04:42;18.10;99.90
14473;DHT22;7322;50.872;4.386;2024-01-07T10:07:30;18.10;99.90
14473;DHT22;7322;50.872;4.386;2024-01-07T10:10:17;18.10;99.90
14473;DHT22;7322;50.872;4.386;2024-01-07T10:13:01;18.10;99.90
14473;DHT22;7322;50.872;4.386;2024-01-07T10:15:41;18.10;99.90
14473;DHT22;7322;50.872;4.386;2024-01-07T10:21:26;18.00;99.90
14473;DHT22;7322;50.872;4.386;2024-01-07T10:24:12;18.00;99.90
14473;DHT22;7322;50.872;4.386;2024-01-07T10:26:53;18.00;99.90
14473;DHT22;7322;50.872;4.386;2024-01-07T10:29:41;17.90;99.90
14473;DHT22;7322;50.872;4.386;2024-01-07T10:32:19;17.90;99.90
14473;DHT22;7322;50.872;4.386;2024-01-07T10:34:57;17.90;99.90
14473;DHT22;7322;50.872;4.386;2024-01-07T10:37:34;17.90;99.90
14473;DHT22;7322;50.872;4.386;2024-01-07T10:40:07;17.90;99.90
14473;DHT22;7322;50.872;4.386;2024-01-07T10:43:00;17.90;99.90
14473;DHT22;7322;50.872;4.386;2024-01-07T10:45:46;17.90;99.90
14473;DHT22;7322;50.872;4.386;2024-01-07T10:48:20;17.90;99.90
14473;DHT22;7322;50.872;4.386;2024-01-07T10:51:04;18.00;99.90
14473;DHT22;7322;50.872;4.386;2024-01-07T10:53:44;17.90;99.90
14473;DHT22;7322;50.872;4.386;2024-01-07T10:56:42;18.00;99.90
14473;DHT22;7322;50.872;4.386;2024-01-07T10:59:18;18.10;99.90
14473;DHT22;7322;50.872;4.386;2024-01-07T11:01:53;18.10;99.90
14473;DHT22;7322;50.872;4.386;2024-01-07T11:04:37;18.10;99.90
14473;DHT22;7322;50.872;4.386;2024-01-07T11:07:17;18.20;99.90
14473;DHT22;7322;50.872;4.386;2024-01-07T11:10:02;18.20;99.90
14473;DHT22;7322;50.872;4.386;2024-01-07T11:12:42;18.10;99.90
14473;DHT22;7322;50.872;4.386;2024-01-07T11:15:16;18.00;99.90
14473;DHT22;7322;50.872;4.386;2024-01-07T11:18:17;18.00;99.90
14473;DHT22;7322;50.872;4.386;2024-01-07T11:20:46;17.90;99.90
14473;DHT22;7322;50.872;4.386;2024-01-07T11:23:29;17.80;99.90
14473;DHT22;7322;50.872;4.386;2024-01-07T11:26:01;17.80;99.90
14473;DHT22;7322;50.872;4.386;2024-01-07T11:28:54;17.90;99.90
14473;DHT22;7322;50.872;4.386;2024-01-07T11:31:43;17.90;99.90
14473;DHT22;7322;50.872;4.386;2024-01-07T11:34:38;17.80;99.90
14473;DHT22;7322;50.872;4.386;2024-01-07T11:37:09;17.80;99.90
14473;DHT22;7322;50.872;4.386;2024-01-07T11:39:54;17.90;99.90
14473;DHT22;7322;50.872;4.386;2024-01-07T11:42:29;17.90;99.90
14473;DHT22;7322;50.872;4.386;2024-01-07T11:45:17;17.90;99.90
14473;DHT22;7322;50.872;4.386;2024-01-07T11:48:11;17.90;99.90
14473;DHT22;7322;50.872;4.386;2024-01-07T11:51:06;17.90;99.90
14473;DHT22;7322;50.872;4.386;2024-01-07T11:53:40;18.00;99.90
14473;DHT22;7322;50.872;4.386;2024-01-07T11:56:34;18.00;99.90
14473;DHT22;7322;50.872;4.386;2024-01-07T11:59:09;18.00;99.90
14473;DHT22;7322;50.872;4.386;2024-01-07T12:01:42;18.00;99.90
14473;DHT22;7322;50.872;4.386;2024-01-07T12:04:09;18.00;99.90
14473;DHT22;7322;50.872;4.386;2024-01-07T12:06:38;18.00;99.90
14473;DHT22;7322;50.872;4.386;2024-01-07T12:09:06;17.90;99.90
14473;DHT22;7322;50.872;4.386;2024-01-07T12:11:34;17.80;99.90
14473;DHT22;7322;50.872;4.386;2024-01-07T12:14:02;17.80;99.90
14473;DHT22;7322;50.872;4.386;2024-01-07T12:16:31;17.70;99.90
14473;DHT22;7322;50.872;4.386;2024-01-07T12:18:58;17.70;99.90
14473;DHT22;7322;50.872;4.386;2024-01-07T12:21:26;17.70;99.90
14473;DHT22;7322;50.872;4.386;2024-01-07T12:23:57;17.70;99.90
14473;DHT22;7322;50.872;4.386;2024-01-07T12:26:31;17.70;99.90
14473;DHT22;7322;50.872;4.386;2024-01-07T12:29:03;17.70;99.90
14473;DHT22;7322;50.872;4.386;2024-01-07T12:31:39;17.70;99.90
14473;DHT22;7322;50.872;4.386;2024-01-07T12:34:15;17.80;99.90
14473;DHT22;7322;50.872;4.386;2024-01-07T12:36:51;18.00;99.90
14473;DHT22;7322;50.872;4.386;2024-01-07T12:39:25;18.00;99.90
14473;DHT22;7322;50.872;4.386;2024-01-07T12:41:53;17.90;99.90
14473;DHT22;7322;50.872;4.386;2024-01-07T12:44:28;17.90;99.90
14473;DHT22;7322;50.872;4.386;2024-01-07T12:47:02;17.80;99.90
14473;DHT22;7322;50.872;4.386;2024-01-07T12:49:32;17.90;99.90
14473;DHT22;7322;50.872;4.386;2024-01-07T12:52:04;18.00;99.90
14473;DHT22;7322;50.872;4.386;2024-01-07T12:54:33;18.00;99.90
14473;DHT22;7322;50.872;4.386;2024-01-07T12:57:07;17.90;99.90
14473;DHT22;7322;50.872;4.386;2024-01-07T12:59:36;17.90;99.90
14473;DHT22;7322;50.872;4.386;2024-01-07T13:02:05;18.00;99.90
14473;DHT22;7322;50.872;4.386;2024-01-07T13:04:36;18.00;99.90
14473;DHT22;7322;50.872;4.386;2024-01-07T13:07:05;18.00;99.90
14473;DHT22;7322;50.872;4.386;2024-01-07T13:09:52;18.00;99.90
14473;DHT22;7322;50.872;4.386;2024-01-07T13:12:25;17.90;99.90
14473;DHT22;7322;50.872;4.386;2024-01-07T13:14:58;17.90;99.90
14473;DHT22;7322;50.872;4.386;2024-01-07T13:17:34;17.80;99.90
14473;DHT22;7322;50.872;4.386;2024-01-07T13:20:06;17.90;99.90
14473;DHT22;7322;50.872;4.386;2024-01-07T13:23:02;18.00;99.90
14473;DHT22;7322;50.872;4.386;2024-01-07T13:25:33;17.80;99.90
14473;DHT22;7322;50.872;4.386;2024-01-07T13:28:28;17.70;99.90
14473;DHT22;7322;50.872;4.386;2024-01-07T13:31:12;17.60;99.90
14473;DHT22;7322;50.872;4.386;2024-01-07T13:33:41;17.60;99.90
14473;DHT22;7322;50.872;4.386;2024-01-07T13:36:18;17.70;99.90
14473;DHT22;7322;50.872;4.386;2024-01-07T13:38:46;17.60;99.90
14473;DHT22;7322;50.872;4.386;2024-01-07T13:41:32;17.50;99.90
14473;DHT22;7322;50.872;4.386;2024-01-07T13:44:00;17.50;99.90
14473;DHT22;7322;50.872;4.386;2024-01-07T13:46:36;17.50;99.90
14473;DHT22;7322;50.872;4.386;2024-01-07T13:49:13;17.50;99.90
14473;DHT22;7322;50.872;4.386;2024-01-07T13:54:43;17.50;99.90
14473;DHT22;7322;50.872;4.386;2024-01-07T14:00:13;17.50;99.90
14473;DHT22;7322;50.872;4.386;2024-01-07T14:02:44;17.50;99.90
14473;DHT22;7322;50.872;4.386;2024-01-07T14:05:20;17.50;99.90
14473;DHT22;7322;50.872;4.386;2024-01-07T14:07:53;17.50;99.90
14473;DHT22;7322;50.872;4.386;2024-01-07T14:10:32;17.50;99.90
14473;DHT22;7322;50.872;4.386;2024-01-07T14:13:08;17.50;99.90
14473;DHT22;7322;50.872;4.386;2024-01-07T14:15:46;17.50;99.90
14473;DHT22;7322;50.872;4.386;2024-01-07T14:18:15;17.50;99.90
14473;DHT22;7322;50.872;4.386;2024-01-07T14:20:42;17.50;99.90
14473;DHT22;7322;50.872;4.386;2024-01-07T14:23:11;17.50;99.90
14473;DHT22;7322;50.872;4.386;2024-01-07T14:25:39;17.60;99.90
14473;DHT22;7322;50.872;4.386;2024-01-07T14:28:09;17.70;99.90
14473;DHT22;7322;50.872;4.386;2024-01-07T14:30:52;17.90;99.90
14473;DHT22;7322;50.872;4.386;2024-01-07T14:33:27;18.10;99.90
14473;DHT22;7322;50.872;4.386;2024-01-07T14:36:08;18.10;99.90
14473;DHT22;7322;50.872;4.386;2024-01-07T14:38:44;18.20;99.90
14473;DHT22;7322;50.872;4.386;2024-01-07T14:41:34;18.10;99.90
14473;DHT22;7322;50.872;4.386;2024-01-07T14:44:03;18.30;99.90
14473;DHT22;7322;50.872;4.386;2024-01-07T14:46:34;18.30;99.90
14473;DHT22;7322;50.872;4.386;2024-01-07T14:49:25;18.30;99.90
14473;DHT22;7322;50.872;4.386;2024-01-07T14:51:57;18.30;99.90
14473;DHT22;7322;50.872;4.386;2024-01-07T14:54:41;18.20;99.90
14473;DHT22;7322;50.872;4.386;2024-01-07T15:00:15;18.20;99.90
14473;DHT22;7322;50.872;4.386;2024-01-07T15:06:24;18.10;99.90
14473;DHT22;7322;50.872;4.386;2024-01-07T15:08:53;18.10;99.90
14473;DHT22;7322;50.872;4.386;2024-01-07T15:14:30;18.10;99.90
14473;DHT22;7322;50.872;4.386;2024-01-07T15:20:30;18.00;99.90
14473;DHT22;7322;50.872;4.386;2024-01-07T15:23:04;18.00;99.90
14473;DHT22;7322;50.872;4.386;2024-01-07T15:28:55;17.90;99.90
14473;DHT22;7322;50.872;4.386;2024-01-07T15:31:24;17.80;99.90
14473;DHT22;7322;50.872;4.386;2024-01-07T15:33:54;17.80;99.90
14473;DHT22;7322;50.872;4.386;2024-01-07T15:36:33;17.80;99.90
14473;DHT22;7322;50.872;4.386;2024-01-07T15:39:04;17.80;99.90
14473;DHT22;7322;50.872;4.386;2024-01-07T15:41:34;17.70;99.90
14473;DHT22;7322;50.872;4.386;2024-01-07T15:44:03;17.70;99.90
14473;DHT22;7322;50.872;4.386;2024-01-07T15:46:34;17.70;99.90
14473;DHT22;7322;50.872;4.386;2024-01-07T15:49:38;17.70;99.90
14473;DHT22;7322;50.872;4.386;2024-01-07T15:52:38;17.60;99.90
14473;DHT22;7322;50.872;4.386;2024-01-07T15:55:18;17.70;99.90
14473;DHT22;7322;50.872;4.386;2024-01-07T15:57:46;17.60;99.90
14473;DHT22;7322;50.872;4.386;2024-01-07T16:00:25;17.60;99.90
14473;DHT22;7322;50.872;4.386;2024-01-07T16:03:20;17.70;99.90
14473;DHT22;7322;50.872;4.386;2024-01-07T16:06:11;17.70;99.90
14473;DHT22;7322;50.872;4.386;2024-01-07T16:08:49;17.80;99.90
14473;DHT22;7322;50.872;4.386;2024-01-07T16:11:20;17.80;99.90
14473;DHT22;7322;50.872;4.386;2024-01-07T16:14:04;17.70;99.90
14473;DHT22;7322;50.872;4.386;2024-01-07T16:16:42;17.70;99.90
14473;DHT22;7322;50.872;4.386;2024-01-07T16:19:10;17.70;99.90
14473;DHT22;7322;50.872;4.386;2024-01-07T16:21:48;17.60;99.90
14473;DHT22;7322;50.872;4.386;2024-01-07T16:24:32;17.60;99.90
14473;DHT22;7322;50.872;4.386;2024-01-07T16:27:37;17.60;99.90
14473;DHT22;7322;50.872;4.386;2024-01-07T16:30:26;17.60;99.90
14473;DHT22;7322;50.872;4.386;2024-01-07T16:33:09;17.60;99.90
14473;DHT22;7322;50.872;4.386;2024-01-07T16:35:51;17.70;99.90
14473;DHT22;7322;50.872;4.386;2024-01-07T16:38:22;17.70;99.90
14473;DHT22;7322;50.872;4.386;2024-01-07T16:40:57;17.70;99.90
14473;DHT22;7322;50.872;4.386;2024-01-07T16:43:37;17.70;99.90
14473;DHT22;7322;50.872;4.386;2024-01-07T16:46:32;17.70;99.90
14473;DHT22;7322;50.872;4.386;2024-01-07T16:49:09;17.70;99.90
14473;DHT22;7322;50.872;4.386;2024-01-07T16:51:43;17.70;99.90
14473;DHT22;7322;50.872;4.386;2024-01-07T16:54:21;17.70;99.90
14473;DHT22;7322;50.872;4.386;2024-01-07T16:57:05;17.60;99.90
14473;DHT22;7322;50.872;4.386;2024-01-07T16:59:50;17.60;99.90
14473;DHT22;7322;50.872;4.386;2024-01-07T17:02:35;17.50;99.90
14473;DHT22;7322;50.872;4.386;2024-01-07T17:05:03;17.60;99.90
14473;DHT22;7322;50.872;4.386;2024-01-07T17:07:59;17.50;99.90
14473;DHT22;7322;50.872;4.386;2024-01-07T17:10:30;17.50;99.90
14473;DHT22;7322;50.872;4.386;2024-01-07T17:13:05;17.50;99.90
14473;DHT22;7322;50.872;4.386;2024-01-07T17:15:42;17.50;99.90
14473;DHT22;7322;50.872;4.386;2024-01-07T17:18:25;17.50;99.90
14473;DHT22;7322;50.872;4.386;2024-01-07T17:21:26;17.50;99.90
14473;DHT22;7322;50.872;4.386;2024-01-07T17:23:58;17.50;99.90
14473;DHT22;7322;50.872;4.386;2024-01-07T17:26:28;17.50;99.90
14473;DHT22;7322;50.872;4.386;2024-01-07T17:28:57;17.50;99.90
14473;DHT22;7322;50.872;4.386;2024-01-07T17:31:29;17.50;99.90
14473;DHT22;7322;50.872;4.386;2024-01-07T17:33:59;17.60;99.90
14473;DHT22;7322;50.872;4.386;2024-01-07T17:36:28;17.50;99.90
14473;DHT22;7322;50.872;4.386;2024-01-07T17:38:59;17.50;99.90
14473;DHT22;7322;50.872;4.386;2024-01-07T17:41:26;17.50;99.90
14473;DHT22;7322;50.872;4.386;2024-01-07T17:43:55;17.50;99.90
14473;DHT22;7322;50.872;4.386;2024-01-07T17:46:22;17.40;99.90
14473;DHT22;7322;50.872;4.386;2024-01-07T17:48:51;17.40;99.90
14473;DHT22;7322;50.872;4.386;2024-01-07T17:51:23;17.40;99.90
14473;DHT22;7322;50.872;4.386;2024-01-07T17:53:52;17.40;99.90
14473;DHT22;7322;50.872;4.386;2024-01-07T17:56:22;17.40;99.90
14473;DHT22;7322;50.872;4.386;2024-01-07T17:58:55;17.40;99.90
14473;DHT22;7322;50.872;4.386;2024-01-07T18:01:22;17.40;99.90
14473;DHT22;7322;50.872;4.386;2024-01-07T18:03:51;17.40;99.90
14473;DHT22;7322;50.872;4.386;2024-01-07T18:06:27;17.40;99.90
14473;DHT22;7322;50.872;4.386;2024-01-07T18:09:00;17.40;99.90
14473;DHT22;7322;50.872;4.386;2024-01-07T18:14:55;17.30;99.90
14473;DHT22;7322;50.872;4.386;2024-01-07T18:17:35;17.30;99.90
14473;DHT22;7322;50.872;4.386;2024-01-07T18:23:27;17.40;99.90
14473;DHT22;7322;50.872;4.386;2024-01-07T18:25:54;17.40;99.90
14473;DHT22;7322;50.872;4.386;2024-01-07T18:28:44;17.50;99.90
14473;DHT22;7322;50.872;4.386;2024-01-07T18:31:33;17.60;99.90
14473;DHT22;7322;50.872;4.386;2024-01-07T18:34:10;17.60;99.90
14473;DHT22;7322;50.872;4.386;2024-01-07T18:36:43;17.60;99.90
14473;DHT22;7322;50.872;4.386;2024-01-07T18:39:38;17.50;99.90
14473;DHT22;7322;50.872;4.386;2024-01-07T18:42:26;17.60;99.90
14473;DHT22;7322;50.872;4.386;2024-01-07T18:45:02;17.60;99.90
14473;DHT22;7322;50.872;4.386;2024-01-07T18:47:59;17.60;99.90
14473;DHT22;7322;50.872;4.386;2024-01-07T18:53:53;17.50;99.90
14473;DHT22;7322;50.872;4.386;2024-01-07T18:56:25;17.50;99.90
14473;DHT22;7322;50.872;4.386;2024-01-07T18:58:58;17.50;99.90
14473;DHT22;7322;50.872;4.386;2024-01-07T19:01:26;17.50;99.90
14473;DHT22;7322;50.872;4.386;2024-01-07T19:03:53;17.50;99.90
14473;DHT22;7322;50.872;4.386;2024-01-07T19:06:43;17.50;99.90
14473;DHT22;7322;50.872;4.386;2024-01-07T19:09:22;17.50;99.90
14473;DHT22;7322;50.872;4.386;2024-01-07T19:11:55;17.40;99.90
14473;DHT22;7322;50.872;4.386;2024-01-07T19:14:23;17.50;99.90
14473;DHT22;7322;50.872;4.386;2024-01-07T19:17:01;17.40;99.90
14473;DHT22;7322;50.872;4.386;2024-01-07T19:19:52;17.40;99.90
14473;DHT22;7322;50.872;4.386;2024-01-07T19:22:40;17.40;99.90
14473;DHT22;7322;50.872;4.386;2024-01-07T19:25:11;17.40;99.90
14473;DHT22;7322;50.872;4.386;2024-01-07T19:28:05;17.30;99.90
14473;DHT22;7322;50.872;4.386;2024-01-07T19:30:40;17.40;99.90
14473;DHT22;7322;50.872;4.386;2024-01-07T19:33:33;17.30;99.90
14473;DHT22;7322;50.872;4.386;2024-01-07T19:36:02;17.20;99.90